Perrysburg, OH (43551)

12:54 PM EDT on August 25, 2016 (GMT -0400)
WCARES | | Change Station

Elev 640 ft 41.53 °N, 83.67 °W | Updated 3 days ago

Mostly Cloudy
Mostly Cloudy
84 °F
Feels Like 91 °F
N
13
Wind Variable Wind from WSW
Gusts mph

Today
High -- | Low -- °F
--% Chance of Precip.
Yesterday
High -- | Low -- °F
Precip. -- in
Pressure 30.00 in
Visibility 10.0 miles
Clouds Few 1900 ft
Heat Index 91 °F
Dew Point 73 °F
Humidity 69%
Rainfall in
Snow Depth Not available.
6:53 AM 8:17 PM
Last Quarter, 44% visible
METAR KTDZ 251553Z AUTO 23009KT 10SM FEW019 28/24 A3001 RMK AO2 SLP157 T02780239
Pressure 30.00 in
Visibility 10.0 miles
Clouds Few 1900 ft
Heat Index 91 °F
Dew Point 73 °F
Humidity 69%
Rainfall in
Snow Depth Not available.
6:53 AM 8:17 PM
Last Quarter, 44% visible
METAR KTDZ 251553Z AUTO 23009KT 10SM FEW019 28/24 A3001 RMK AO2 SLP157 T02780239

10-Day Weather Forecast

Almanac

Astronomy

Aug. 25, 2016 Rise Set
Actual Time
Civil Twilight
Nautical Twilight
Astronomical Twilight
Moon
Length of Visible Light
Length of Day
Tomorrow will be .
, % of the Moon is Illuminated

Today's Extremes

State Highs State Lows

Community

WunderPhotos

Upload Photos

1,934,869 photos uploaded!

WunderBlog® & News

Nearby

Air Quality

  Air Quality AQ Index Pollutant
Not available.

Snow Depth

Station Depth Elevation

Earthquake Activity

City Distance Mag. Time & Date
Minimum magnitude displayed is 2.5.

Coastal Water Temperatures

Place Temperature

Stations

Nearby Weather Stations

Station Location Temp. Windchill Dew Point Humidity Wind Precip. Elev Updated Type
                   

Watches & Warnings

There are currently no watches in effect.